Flight Track Log - Related Links

Times and Time Zones

All times are in EDT time to prevent confusion due to time zone crossing. See the CHQ5098 flight status page for this flight to view local times or setup timezone preferences in your user account.

Time Position Orientation Groundspeed Altitude Reporting Facility
EDT Latitude Longitude Course Direction KTS MPH feet Rate Location/Type
Thu 10:00:12 PM 42.0000 -87.9333 346° North 150 173 2,000  Level Chicago TRACON
Thu 10:01:06 PM 42.0500 -87.9167 14° North 193 222 3,700 1,684 Climbing Chicago TRACON
Thu 10:02:00 PM 42.1918 -87.9709 340° North  Level FlightAware Approximate
Thu 10:02:06 PM 42.1167 -87.9000 11° North 261 300 5,200  Level Chicago TRACON
Thu 10:03:00 PM 42.2668 -87.9959 350° North  Level FlightAware Approximate
Thu 10:03:13 PM 42.1856 -87.8731 16° North 275 316 8,100  Level Chicago Center
Thu 10:04:00 PM 42.3431 -88.0149 350° North  Level FlightAware Approximate
Thu 10:04:14 PM 42.2586 -87.8478 14° North 274 315 11,000  Level Chicago Center
Thu 10:05:00 PM 42.4185 -88.0395 346° North  Level FlightAware Approximate
Thu 10:05:16 PM 42.3339 -87.8550 356° North 280 322 12,000  Level Chicago Center
Thu 10:06:18 PM 42.4319 -87.8586 358° North 300 345 11,900 -49 Descending Chicago Center
Thu 10:07:19 PM 42.5136 -87.8397 10° North 300 345 11,900 49 Level Chicago Center
Thu 10:08:21 PM 42.5942 -87.8175 11° North 297 342 12,000 48 Climbing Chicago Center
Thu 10:09:23 PM 42.6756 -87.7947 12° North 297 342 12,000  Level Chicago Center
Thu 10:10:24 PM 42.7583 -87.7722 11° North 303 349 12,000  Level Chicago Center
Thu 10:11:26 PM 42.8378 -87.7492 12° North 295 339 12,000  Level Chicago Center
Thu 10:12:27 PM 42.9275 -87.7267 10° North 283 326 12,000 293 Level Chicago Center
Thu 10:13:29 PM 43.0033 -87.7042 12° North 280 322 12,600 780 Climbing Chicago Center
Thu 10:14:30 PM 43.0806 -87.6836 11° North 280 322 13,600 683 Climbing Chicago Center
Thu 10:15:32 PM 43.1619 -87.6614 11° North 295 339 14,000 195 Climbing Chicago Center
Thu 10:16:33 PM 43.2458 -87.6381 11° North 306 352 14,000 -49 Level Chicago Center
Thu 10:17:35 PM 43.3292 -87.6497 354° North 307 353 13,900  Descending Chicago Center
Thu 10:18:36 PM 43.4089 -87.6836 343° North 302 348 14,000 49 Climbing Chicago Center
Thu 10:19:38 PM 43.5003 -87.7206 344° North 295 339 14,000  Level Chicago Center
Thu 10:20:39 PM 43.5769 -87.7531 343° North 290 334 14,000  Level Chicago Center
Thu 10:21:17 PM 43.6261 -87.7736 343° North 286 329 14,000 -242 Level Minneapolis Center
Thu 10:22:18 PM 43.7031 -87.8036 344° North 287 330 13,600 -393 Descending Minneapolis Center
Thu 10:23:19 PM 43.7808 -87.8239 349° North 284 327 13,200 -443 Descending Minneapolis Center
Thu 10:24:20 PM 43.8628 -87.8472 348° North 297 342 12,700 -738 Descending Minneapolis Center
Thu 10:25:21 PM 43.9506 -87.8514 358° North 314 361 11,700 -1,073 Descending Minneapolis Center
Thu 10:26:23 PM 44.0397 -87.8583 357° North 319 367 10,500 -1,268 Descending Minneapolis Center
Thu 10:27:24 PM 44.1119 -87.8997 338° Northwest 282 325 9,100 -1,525 Descending Minneapolis Center
Thu 10:28:25 PM 44.1797 -87.9544 330° Northwest 280 322 7,400 -1,623 Descending Minneapolis Center
Thu 10:29:26 PM 44.2428 -88.0108 327° Northwest 274 315 5,800 -1,721 Descending Minneapolis Center
Thu 10:30:27 PM 44.3061 -88.0908 318° Northwest 266 306 3,900 -1,426 Descending Minneapolis Center
Thu 10:31:28 PM 44.3597 -88.1350 330° Northwest 245 282 2,900 -984 Descending Minneapolis Center

Login

Don't have an account? Register now (free) for customized features, flight alerts, and more!